Revelstoke, Canada
Current Conditions -  °F | °C
As of 1:15 AM on Wednesday 26 Nov 2014 (Local Time) from CYRV Reporting Station
Light Snow Light Snow  
Wind Chill: 32°   Ceiling: 2400
Heat Index: 32°   Visibility: 1.5mi
Dew Point: 32°   Wind: 2mph
Humidity: 100%   Direction: NA
Pressure: 30.22"   Gusts: NA
Location:  51.01°N, 118.21°W
Report Text: CYRV 260915Z AUTO VRB02KT 1 1/2SM -SN FEW006 SCT013 SCT017 OVC024 00/M00 A3022 RMK ICG TS/LTNG TEMPO UNAVBL SLP254
Loading
Personal Weather Stations






























Interactive Weather Map New forecast layout! Learn more

10-Day Weather Forecast

Advertisements
Track Severe Weather on mobile